OMRK/RKT METAR and TAF weather

Enter ICAO airport designator
Station Type Date Time Source
OMRK METAR 2019/08/18 10:00 UTC NOAA

OMRK 181000Z 12018KT CAVOK 41/20 Q1000 A2954


Station Type Date Time Source
OMRK Decoded METAR 2019/08/18 10:00 UTC NOAA

Station name not available
Aug 18, 2019 - 06:00 AM EDT / 2019.08.18 1000 UTC
Wind: from the ESE (120 degrees) at 21 MPH (18 KT):0
Visibility: greater than 7 mile(s):0
Temperature: 105 F (41 C)
Heat index: 111.6 F (44.2 C):1
Dew Point: 68 F (20 C)
Relative Humidity: 30%
Pressure (altimeter): 29.54 in. Hg (1000 hPa)
ob: OMRK 181000Z 12018KT CAVOK 41/20 Q1000 A2954
cycle: 10

Station Type Date Time Source
OMRK TAF 2019/08/18 06:06 UTC NOAA

TAF OMRK 180454Z 1806/1912 12014KT 7000 NSC PROB30
TEMPO 1806/1810 12015G25KT 4000 DU PROB30 1810/1814 36013KT PROB30
TEMPO 1902/1906 12015G25KT 4000 DU
BECMG 1910/1912 35012KT

Example: see airport list